Croweburg, Kansas
Current Conditions -  °F | °C
As of 10:35 AM on Thursday 23 Oct 2014 (Local Time) from KPTS Reporting Station
Overcast Overcast  
Wind Chill: 58°   Ceiling: 600
Heat Index: 58°   Visibility: 10mi
Dew Point: 58°   Wind: 8mph
Humidity: 100%   Direction: 210°SSW
Pressure: 30.16"   Gusts: NA
Location:  37.5542°N, 94.6826°W
Report Text: KPTS 231535Z AUTO 21007KT 10SM OVC006 15/15 A3016 RMK AO2 T01470147
Loading
Personal Weather Stations






























Interactive Weather Map
Tropical Storm Tracking
New forecast layout! Learn more

10-Day Weather Forecast

Advertisements
Track Severe Weather on mobile